sensor_id;sensor_type;location;lat;lon;timestamp;P1;durP1;ratioP1;P2;durP2;ratioP2
18194;SDS011;9223;50.988;3.162;2022-12-29T00:05:23;4.75;;;2.67;;
18194;SDS011;9223;50.988;3.162;2022-12-29T00:11:28;2.70;;;1.27;;
18194;SDS011;9223;50.988;3.162;2022-12-29T00:17:31;3.75;;;1.85;;
18194;SDS011;9223;50.988;3.162;2022-12-29T00:23:36;3.05;;;1.10;;
18194;SDS011;9223;50.988;3.162;2022-12-29T00:29:59;2.35;;;1.13;;
18194;SDS011;9223;50.988;3.162;2022-12-29T00:36:16;3.00;;;1.70;;
18194;SDS011;9223;50.988;3.162;2022-12-29T00:42:21;2.63;;;0.80;;
18194;SDS011;9223;50.988;3.162;2022-12-29T00:48:43;2.80;;;1.05;;
18194;SDS011;9223;50.988;3.162;2022-12-29T00:55:05;2.50;;;1.33;;
18194;SDS011;9223;50.988;3.162;2022-12-29T01:01:09;2.45;;;1.40;;
18194;SDS011;9223;50.988;3.162;2022-12-29T01:07:14;1.73;;;1.17;;
18194;SDS011;9223;50.988;3.162;2022-12-29T01:13:18;2.40;;;1.27;;
18194;SDS011;9223;50.988;3.162;2022-12-29T01:19:22;1.95;;;0.70;;
18194;SDS011;9223;50.988;3.162;2022-12-29T01:25:27;3.28;;;0.82;;
18194;SDS011;9223;50.988;3.162;2022-12-29T01:31:30;2.72;;;1.17;;
18194;SDS011;9223;50.988;3.162;2022-12-29T01:37:34;1.35;;;0.82;;
18194;SDS011;9223;50.988;3.162;2022-12-29T01:43:42;1.70;;;0.65;;
18194;SDS011;9223;50.988;3.162;2022-12-29T01:49:46;3.42;;;1.00;;
18194;SDS011;9223;50.988;3.162;2022-12-29T01:55:52;2.08;;;1.20;;
18194;SDS011;9223;50.988;3.162;2022-12-29T02:01:57;1.42;;;0.77;;
18194;SDS011;9223;50.988;3.162;2022-12-29T02:08:01;1.67;;;1.13;;
18194;SDS011;9223;50.988;3.162;2022-12-29T02:14:07;3.33;;;0.85;;
18194;SDS011;9223;50.988;3.162;2022-12-29T02:20:26;2.20;;;0.80;;
18194;SDS011;9223;50.988;3.162;2022-12-29T02:26:45;2.00;;;0.65;;
18194;SDS011;9223;50.988;3.162;2022-12-29T02:32:54;1.55;;;0.88;;
18194;SDS011;9223;50.988;3.162;2022-12-29T02:39:03;2.75;;;1.00;;
18194;SDS011;9223;50.988;3.162;2022-12-29T02:45:09;1.20;;;0.40;;
18194;SDS011;9223;50.988;3.162;2022-12-29T02:51:18;2.38;;;0.98;;
18194;SDS011;9223;50.988;3.162;2022-12-29T02:57:31;2.08;;;0.95;;
18194;SDS011;9223;50.988;3.162;2022-12-29T03:03:39;3.10;;;0.90;;
18194;SDS011;9223;50.988;3.162;2022-12-29T03:09:49;3.75;;;1.17;;
18194;SDS011;9223;50.988;3.162;2022-12-29T03:15:58;3.22;;;1.10;;
18194;SDS011;9223;50.988;3.162;2022-12-29T03:22:08;4.82;;;1.00;;
18194;SDS011;9223;50.988;3.162;2022-12-29T03:28:33;3.80;;;1.20;;
18194;SDS011;9223;50.988;3.162;2022-12-29T03:34:39;2.08;;;0.75;;
18194;SDS011;9223;50.988;3.162;2022-12-29T03:40:44;6.28;;;1.30;;
18194;SDS011;9223;50.988;3.162;2022-12-29T03:46:50;4.18;;;1.42;;
18194;SDS011;9223;50.988;3.162;2022-12-29T03:52:53;3.42;;;1.17;;
18194;SDS011;9223;50.988;3.162;2022-12-29T03:58:57;4.28;;;1.10;;
18194;SDS011;9223;50.988;3.162;2022-12-29T04:05:02;5.95;;;1.20;;
18194;SDS011;9223;50.988;3.162;2022-12-29T04:11:05;4.75;;;1.10;;
18194;SDS011;9223;50.988;3.162;2022-12-29T04:17:09;3.55;;;1.02;;
18194;SDS011;9223;50.988;3.162;2022-12-29T04:23:14;6.78;;;1.08;;
18194;SDS011;9223;50.988;3.162;2022-12-29T04:29:19;2.83;;;0.85;;
18194;SDS011;9223;50.988;3.162;2022-12-29T04:35:22;4.68;;;0.95;;
18194;SDS011;9223;50.988;3.162;2022-12-29T04:41:27;2.88;;;0.80;;
18194;SDS011;9223;50.988;3.162;2022-12-29T04:47:31;4.65;;;1.15;;
18194;SDS011;9223;50.988;3.162;2022-12-29T04:53:34;3.35;;;1.10;;
18194;SDS011;9223;50.988;3.162;2022-12-29T04:59:39;6.53;;;1.20;;
18194;SDS011;9223;50.988;3.162;2022-12-29T05:05:43;5.03;;;1.25;;
18194;SDS011;9223;50.988;3.162;2022-12-29T05:11:47;6.28;;;0.95;;
18194;SDS011;9223;50.988;3.162;2022-12-29T05:17:52;3.30;;;1.00;;
18194;SDS011;9223;50.988;3.162;2022-12-29T05:23:55;2.72;;;0.77;;
18194;SDS011;9223;50.988;3.162;2022-12-29T05:29:59;4.78;;;0.85;;
18194;SDS011;9223;50.988;3.162;2022-12-29T05:36:05;5.30;;;1.08;;
18194;SDS011;9223;50.988;3.162;2022-12-29T05:42:08;2.58;;;0.90;;
18194;SDS011;9223;50.988;3.162;2022-12-29T05:48:12;7.05;;;1.48;;
18194;SDS011;9223;50.988;3.162;2022-12-29T05:54:17;4.25;;;1.20;;
18194;SDS011;9223;50.988;3.162;2022-12-29T06:00:20;5.57;;;1.23;;
18194;SDS011;9223;50.988;3.162;2022-12-29T06:06:24;4.57;;;1.40;;
18194;SDS011;9223;50.988;3.162;2022-12-29T06:12:29;5.47;;;1.25;;
18194;SDS011;9223;50.988;3.162;2022-12-29T06:18:33;9.95;;;1.90;;
18194;SDS011;9223;50.988;3.162;2022-12-29T06:24:36;7.68;;;1.88;;
18194;SDS011;9223;50.988;3.162;2022-12-29T06:30:44;6.95;;;1.42;;
18194;SDS011;9223;50.988;3.162;2022-12-29T06:36:48;4.75;;;1.23;;
18194;SDS011;9223;50.988;3.162;2022-12-29T06:42:51;7.07;;;1.48;;
18194;SDS011;9223;50.988;3.162;2022-12-29T06:48:56;3.38;;;1.33;;
18194;SDS011;9223;50.988;3.162;2022-12-29T06:55:00;4.28;;;1.40;;
18194;SDS011;9223;50.988;3.162;2022-12-29T07:01:04;5.25;;;1.35;;
18194;SDS011;9223;50.988;3.162;2022-12-29T07:07:09;8.32;;;1.30;;
18194;SDS011;9223;50.988;3.162;2022-12-29T07:13:12;5.53;;;1.25;;
18194;SDS011;9223;50.988;3.162;2022-12-29T07:19:16;7.82;;;1.27;;
18194;SDS011;9223;50.988;3.162;2022-12-29T07:25:21;7.88;;;2.20;;
18194;SDS011;9223;50.988;3.162;2022-12-29T07:31:24;6.97;;;1.52;;
18194;SDS011;9223;50.988;3.162;2022-12-29T07:37:28;8.45;;;1.65;;
18194;SDS011;9223;50.988;3.162;2022-12-29T07:43:33;8.85;;;1.55;;
18194;SDS011;9223;50.988;3.162;2022-12-29T07:49:36;4.63;;;1.67;;
18194;SDS011;9223;50.988;3.162;2022-12-29T07:55:40;9.52;;;1.63;;
18194;SDS011;9223;50.988;3.162;2022-12-29T08:01:45;7.20;;;1.55;;
18194;SDS011;9223;50.988;3.162;2022-12-29T08:07:48;2.38;;;1.00;;
18194;SDS011;9223;50.988;3.162;2022-12-29T08:13:52;8.65;;;1.67;;
18194;SDS011;9223;50.988;3.162;2022-12-29T08:19:56;4.28;;;1.38;;
18194;SDS011;9223;50.988;3.162;2022-12-29T08:26:00;6.90;;;1.75;;
18194;SDS011;9223;50.988;3.162;2022-12-29T08:32:04;6.78;;;1.25;;
18194;SDS011;9223;50.988;3.162;2022-12-29T08:38:09;5.03;;;1.55;;
18194;SDS011;9223;50.988;3.162;2022-12-29T08:44:13;5.95;;;1.52;;
18194;SDS011;9223;50.988;3.162;2022-12-29T08:50:16;9.32;;;1.70;;
18194;SDS011;9223;50.988;3.162;2022-12-29T08:56:21;5.35;;;1.42;;
18194;SDS011;9223;50.988;3.162;2022-12-29T09:02:25;6.30;;;1.90;;
18194;SDS011;9223;50.988;3.162;2022-12-29T09:08:28;11.82;;;1.90;;
18194;SDS011;9223;50.988;3.162;2022-12-29T09:14:33;8.60;;;2.30;;
18194;SDS011;9223;50.988;3.162;2022-12-29T09:20:37;10.57;;;2.45;;
18194;SDS011;9223;50.988;3.162;2022-12-29T09:26:41;8.55;;;1.65;;
18194;SDS011;9223;50.988;3.162;2022-12-29T09:32:49;11.68;;;2.30;;
18194;SDS011;9223;50.988;3.162;2022-12-29T09:38:55;10.88;;;1.88;;
18194;SDS011;9223;50.988;3.162;2022-12-29T09:45:10;12.05;;;1.77;;
18194;SDS011;9223;50.988;3.162;2022-12-29T09:51:18;8.60;;;2.00;;
18194;SDS011;9223;50.988;3.162;2022-12-29T09:57:25;8.52;;;1.58;;
18194;SDS011;9223;50.988;3.162;2022-12-29T10:03:32;7.45;;;1.85;;
18194;SDS011;9223;50.988;3.162;2022-12-29T10:09:41;7.28;;;2.35;;
18194;SDS011;9223;50.988;3.162;2022-12-29T10:15:52;9.27;;;2.00;;
18194;SDS011;9223;50.988;3.162;2022-12-29T10:22:00;7.53;;;1.85;;
18194;SDS011;9223;50.988;3.162;2022-12-29T10:28:14;7.57;;;1.67;;
18194;SDS011;9223;50.988;3.162;2022-12-29T10:34:20;4.85;;;1.13;;
18194;SDS011;9223;50.988;3.162;2022-12-29T10:40:25;5.63;;;1.00;;
18194;SDS011;9223;50.988;3.162;2022-12-29T10:46:32;4.85;;;1.50;;
18194;SDS011;9223;50.988;3.162;2022-12-29T10:52:36;5.35;;;1.48;;
18194;SDS011;9223;50.988;3.162;2022-12-29T10:58:41;5.63;;;1.23;;
18194;SDS011;9223;50.988;3.162;2022-12-29T11:04:53;6.80;;;1.42;;
18194;SDS011;9223;50.988;3.162;2022-12-29T11:10:59;6.85;;;1.23;;
18194;SDS011;9223;50.988;3.162;2022-12-29T11:17:03;5.20;;;1.65;;
18194;SDS011;9223;50.988;3.162;2022-12-29T11:23:20;9.82;;;1.88;;
18194;SDS011;9223;50.988;3.162;2022-12-29T11:29:25;10.23;;;2.35;;
18194;SDS011;9223;50.988;3.162;2022-12-29T11:35:30;8.35;;;2.08;;
18194;SDS011;9223;50.988;3.162;2022-12-29T11:41:35;8.63;;;2.20;;
18194;SDS011;9223;50.988;3.162;2022-12-29T11:47:41;6.63;;;1.80;;
18194;SDS011;9223;50.988;3.162;2022-12-29T11:53:46;6.32;;;2.55;;
18194;SDS011;9223;50.988;3.162;2022-12-29T11:59:52;9.05;;;2.55;;
18194;SDS011;9223;50.988;3.162;2022-12-29T12:05:57;7.20;;;2.33;;
18194;SDS011;9223;50.988;3.162;2022-12-29T12:12:01;7.95;;;2.50;;
18194;SDS011;9223;50.988;3.162;2022-12-29T12:18:08;3.72;;;1.83;;
18194;SDS011;9223;50.988;3.162;2022-12-29T12:24:17;7.50;;;2.33;;
18194;SDS011;9223;50.988;3.162;2022-12-29T12:30:23;6.90;;;1.80;;
18194;SDS011;9223;50.988;3.162;2022-12-29T12:36:32;5.13;;;2.20;;
18194;SDS011;9223;50.988;3.162;2022-12-29T12:42:39;6.50;;;2.65;;
18194;SDS011;9223;50.988;3.162;2022-12-29T12:48:49;5.78;;;2.45;;
18194;SDS011;9223;50.988;3.162;2022-12-29T12:55:01;4.43;;;2.42;;
18194;SDS011;9223;50.988;3.162;2022-12-29T13:01:14;4.70;;;2.08;;
18194;SDS011;9223;50.988;3.162;2022-12-29T13:07:21;3.38;;;1.35;;
18194;SDS011;9223;50.988;3.162;2022-12-29T13:13:36;4.18;;;1.65;;
18194;SDS011;9223;50.988;3.162;2022-12-29T13:19:45;7.63;;;2.10;;
18194;SDS011;9223;50.988;3.162;2022-12-29T13:25:53;3.35;;;0.70;;
18194;SDS011;9223;50.988;3.162;2022-12-29T13:32:01;6.15;;;1.83;;
18194;SDS011;9223;50.988;3.162;2022-12-29T13:38:11;8.20;;;2.63;;
18194;SDS011;9223;50.988;3.162;2022-12-29T13:44:17;3.13;;;1.13;;
18194;SDS011;9223;50.988;3.162;2022-12-29T13:50:25;2.58;;;0.95;;
18194;SDS011;9223;50.988;3.162;2022-12-29T13:56:31;4.07;;;1.92;;
18194;SDS011;9223;50.988;3.162;2022-12-29T14:02:37;6.55;;;2.45;;
18194;SDS011;9223;50.988;3.162;2022-12-29T14:08:46;6.82;;;2.67;;
18194;SDS011;9223;50.988;3.162;2022-12-29T14:14:50;4.80;;;1.88;;
18194;SDS011;9223;50.988;3.162;2022-12-29T14:20:54;4.88;;;1.70;;
18194;SDS011;9223;50.988;3.162;2022-12-29T14:27:00;8.10;;;3.00;;
18194;SDS011;9223;50.988;3.162;2022-12-29T14:33:10;9.98;;;4.88;;
18194;SDS011;9223;50.988;3.162;2022-12-29T14:39:27;7.40;;;3.80;;
18194;SDS011;9223;50.988;3.162;2022-12-29T14:45:32;10.80;;;4.03;;
18194;SDS011;9223;50.988;3.162;2022-12-29T14:51:38;6.32;;;2.63;;
18194;SDS011;9223;50.988;3.162;2022-12-29T14:57:42;4.88;;;1.70;;
18194;SDS011;9223;50.988;3.162;2022-12-29T15:03:49;7.07;;;1.98;;
18194;SDS011;9223;50.988;3.162;2022-12-29T15:09:54;4.28;;;2.00;;
18194;SDS011;9223;50.988;3.162;2022-12-29T15:15:59;6.43;;;1.80;;
18194;SDS011;9223;50.988;3.162;2022-12-29T15:22:04;5.78;;;1.65;;
18194;SDS011;9223;50.988;3.162;2022-12-29T15:28:10;5.03;;;1.92;;
18194;SDS011;9223;50.988;3.162;2022-12-29T15:34:15;5.70;;;2.65;;
18194;SDS011;9223;50.988;3.162;2022-12-29T15:40:26;5.75;;;2.25;;
18194;SDS011;9223;50.988;3.162;2022-12-29T15:46:29;5.88;;;2.08;;
18194;SDS011;9223;50.988;3.162;2022-12-29T15:52:33;10.57;;;2.65;;
18194;SDS011;9223;50.988;3.162;2022-12-29T15:58:41;4.60;;;1.92;;
18194;SDS011;9223;50.988;3.162;2022-12-29T16:04:45;8.35;;;3.35;;
18194;SDS011;9223;50.988;3.162;2022-12-29T16:11:17;10.52;;;3.05;;
18194;SDS011;9223;50.988;3.162;2022-12-29T16:17:26;14.18;;;2.80;;
18194;SDS011;9223;50.988;3.162;2022-12-29T16:23:30;9.00;;;2.95;;
18194;SDS011;9223;50.988;3.162;2022-12-29T16:29:34;7.90;;;2.38;;
18194;SDS011;9223;50.988;3.162;2022-12-29T16:35:44;11.40;;;2.40;;
18194;SDS011;9223;50.988;3.162;2022-12-29T16:41:50;11.23;;;2.92;;
18194;SDS011;9223;50.988;3.162;2022-12-29T16:48:09;7.53;;;3.05;;
18194;SDS011;9223;50.988;3.162;2022-12-29T16:54:19;9.25;;;3.70;;
18194;SDS011;9223;50.988;3.162;2022-12-29T17:00:24;9.88;;;2.75;;
18194;SDS011;9223;50.988;3.162;2022-12-29T17:06:29;6.90;;;2.63;;
18194;SDS011;9223;50.988;3.162;2022-12-29T17:12:35;12.20;;;4.47;;
18194;SDS011;9223;50.988;3.162;2022-12-29T17:18:39;9.13;;;2.92;;
18194;SDS011;9223;50.988;3.162;2022-12-29T17:24:42;10.63;;;3.30;;
18194;SDS011;9223;50.988;3.162;2022-12-29T17:30:47;5.35;;;2.00;;
18194;SDS011;9223;50.988;3.162;2022-12-29T17:36:51;8.00;;;3.08;;
18194;SDS011;9223;50.988;3.162;2022-12-29T17:42:55;10.45;;;3.40;;
18194;SDS011;9223;50.988;3.162;2022-12-29T17:49:01;8.57;;;3.95;;
18194;SDS011;9223;50.988;3.162;2022-12-29T17:55:04;8.40;;;2.60;;
18194;SDS011;9223;50.988;3.162;2022-12-29T18:01:08;6.90;;;2.47;;
18194;SDS011;9223;50.988;3.162;2022-12-29T18:07:13;6.70;;;2.97;;
18194;SDS011;9223;50.988;3.162;2022-12-29T18:13:18;10.15;;;3.33;;
18194;SDS011;9223;50.988;3.162;2022-12-29T18:19:22;6.95;;;2.80;;
18194;SDS011;9223;50.988;3.162;2022-12-29T18:25:38;8.98;;;2.60;;
18194;SDS011;9223;50.988;3.162;2022-12-29T18:31:43;9.32;;;2.25;;
18194;SDS011;9223;50.988;3.162;2022-12-29T18:37:46;9.32;;;3.08;;
18194;SDS011;9223;50.988;3.162;2022-12-29T18:43:51;10.23;;;2.83;;
18194;SDS011;9223;50.988;3.162;2022-12-29T18:49:55;6.65;;;2.70;;
18194;SDS011;9223;50.988;3.162;2022-12-29T18:55:58;9.10;;;1.85;;
18194;SDS011;9223;50.988;3.162;2022-12-29T19:02:03;7.60;;;2.15;;
18194;SDS011;9223;50.988;3.162;2022-12-29T19:08:06;6.85;;;2.33;;
18194;SDS011;9223;50.988;3.162;2022-12-29T19:14:14;6.40;;;2.58;;
18194;SDS011;9223;50.988;3.162;2022-12-29T19:20:26;7.95;;;3.08;;
18194;SDS011;9223;50.988;3.162;2022-12-29T19:26:30;11.82;;;3.17;;
18194;SDS011;9223;50.988;3.162;2022-12-29T19:32:35;8.65;;;2.40;;
18194;SDS011;9223;50.988;3.162;2022-12-29T19:38:39;8.60;;;2.90;;
18194;SDS011;9223;50.988;3.162;2022-12-29T19:44:43;7.13;;;2.70;;
18194;SDS011;9223;50.988;3.162;2022-12-29T19:50:47;8.00;;;2.35;;
18194;SDS011;9223;50.988;3.162;2022-12-29T19:56:52;6.55;;;2.35;;
18194;SDS011;9223;50.988;3.162;2022-12-29T20:02:55;4.72;;;2.22;;
18194;SDS011;9223;50.988;3.162;2022-12-29T20:09:00;8.00;;;2.53;;
18194;SDS011;9223;50.988;3.162;2022-12-29T20:15:06;6.60;;;2.30;;
18194;SDS011;9223;50.988;3.162;2022-12-29T20:21:12;7.95;;;2.17;;
18194;SDS011;9223;50.988;3.162;2022-12-29T20:27:15;5.20;;;2.17;;
18194;SDS011;9223;50.988;3.162;2022-12-29T20:33:20;9.60;;;2.50;;
18194;SDS011;9223;50.988;3.162;2022-12-29T20:39:24;8.65;;;2.10;;
18194;SDS011;9223;50.988;3.162;2022-12-29T20:45:27;4.85;;;2.10;;
18194;SDS011;9223;50.988;3.162;2022-12-29T20:51:32;3.20;;;1.65;;
18194;SDS011;9223;50.988;3.162;2022-12-29T20:57:56;4.78;;;1.30;;
18194;SDS011;9223;50.988;3.162;2022-12-29T21:04:19;3.58;;;1.50;;
18194;SDS011;9223;50.988;3.162;2022-12-29T21:10:24;4.55;;;1.27;;
18194;SDS011;9223;50.988;3.162;2022-12-29T21:16:28;4.13;;;2.47;;
18194;SDS011;9223;50.988;3.162;2022-12-29T21:22:32;2.67;;;1.40;;
18194;SDS011;9223;50.988;3.162;2022-12-29T21:28:37;5.40;;;1.70;;
18194;SDS011;9223;50.988;3.162;2022-12-29T21:34:41;5.03;;;1.70;;
18194;SDS011;9223;50.988;3.162;2022-12-29T21:40:45;5.10;;;1.45;;
18194;SDS011;9223;50.988;3.162;2022-12-29T21:46:50;7.40;;;2.22;;
18194;SDS011;9223;50.988;3.162;2022-12-29T21:52:53;9.52;;;2.40;;
18194;SDS011;9223;50.988;3.162;2022-12-29T21:58:57;7.32;;;1.70;;
18194;SDS011;9223;50.988;3.162;2022-12-29T22:05:19;3.35;;;1.50;;
18194;SDS011;9223;50.988;3.162;2022-12-29T22:11:40;5.93;;;1.50;;
18194;SDS011;9223;50.988;3.162;2022-12-29T22:18:02;2.78;;;1.30;;
18194;SDS011;9223;50.988;3.162;2022-12-29T22:24:08;6.10;;;1.45;;
18194;SDS011;9223;50.988;3.162;2022-12-29T22:30:11;6.68;;;1.58;;
18194;SDS011;9223;50.988;3.162;2022-12-29T22:36:15;4.25;;;1.67;;
18194;SDS011;9223;50.988;3.162;2022-12-29T22:42:20;5.90;;;1.55;;
18194;SDS011;9223;50.988;3.162;2022-12-29T22:48:24;6.55;;;1.73;;
18194;SDS011;9223;50.988;3.162;2022-12-29T22:54:27;6.70;;;1.85;;
18194;SDS011;9223;50.988;3.162;2022-12-29T23:00:32;7.38;;;1.70;;
18194;SDS011;9223;50.988;3.162;2022-12-29T23:06:36;6.07;;;1.90;;
18194;SDS011;9223;50.988;3.162;2022-12-29T23:12:39;4.97;;;1.67;;
18194;SDS011;9223;50.988;3.162;2022-12-29T23:18:45;5.10;;;1.80;;
18194;SDS011;9223;50.988;3.162;2022-12-29T23:24:49;6.53;;;1.80;;
18194;SDS011;9223;50.988;3.162;2022-12-29T23:30:52;4.75;;;1.58;;
18194;SDS011;9223;50.988;3.162;2022-12-29T23:36:57;6.45;;;1.92;;
18194;SDS011;9223;50.988;3.162;2022-12-29T23:43:00;7.38;;;1.92;;
18194;SDS011;9223;50.988;3.162;2022-12-29T23:49:07;7.18;;;1.65;;
18194;SDS011;9223;50.988;3.162;2022-12-29T23:55:12;7.63;;;1.98;;
